CKS379 KCVG-KYIP
Flight info
| Callsign | CKS379 |
|---|---|
| Flight time | 0h 47m |
| Altitude | 31000 |
| Route | HAGOL5 PLASH TORRR PETTE2 |
| Aircraft | B77L/H-SDE1E2E3FGHIJ2J3J4J5M1RWXY/LB1D1 |
Departure
| Time | 2026-05-04 02:52 |
|---|---|
| Airport | Cincinnati Northern Kentucky International Airport (KCVG) |
Arrival
| Time | 2026-05-04 03:40 |
|---|---|
| Airport | Willow Run Airport (KYIP) |
| Time | Latitude | Longitude | Altitude | Speed | Heading |
|---|---|---|---|---|---|
| 2026-05-04 02:35 | 39.03264 | -84.65083 | 891 ft | 0 kts | 51° |
| 2026-05-04 02:42 | 39.03265 | -84.65082 | 891 ft | 0 kts | 51° |
| 2026-05-04 02:46 | 39.03313 | -84.65026 | 890 ft | 20 kts | 31° |
| 2026-05-04 02:46 | 39.03453 | -84.64996 | 890 ft | 21 kts | 360° |
| 2026-05-04 02:46 | 39.03601 | -84.64996 | 886 ft | 24 kts | 360° |
| 2026-05-04 02:47 | 39.03831 | -84.64995 | 883 ft | 40 kts | 0° |
| 2026-05-04 02:47 | 39.04107 | -84.64995 | 880 ft | 39 kts | 0° |
| 2026-05-04 02:47 | 39.04366 | -84.64993 | 880 ft | 36 kts | 0° |
| 2026-05-04 02:47 | 39.04624 | -84.64992 | 884 ft | 36 kts | 0° |
| 2026-05-04 02:48 | 39.04873 | -84.64990 | 884 ft | 35 kts | 0° |
| 2026-05-04 02:48 | 39.05110 | -84.64989 | 879 ft | 34 kts | 0° |
| 2026-05-04 02:48 | 39.05340 | -84.64989 | 877 ft | 29 kts | 0° |
| 2026-05-04 02:48 | 39.05513 | -84.64988 | 874 ft | 17 kts | 1° |
| 2026-05-04 02:49 | 39.05576 | -84.64888 | 872 ft | 17 kts | 90° |
| 2026-05-04 02:49 | 39.05576 | -84.64817 | 873 ft | 0 kts | 90° |
| 2026-05-04 02:51 | 39.05572 | -84.64725 | 873 ft | 16 kts | 105° |
| 2026-05-04 02:51 | 39.05525 | -84.64672 | 874 ft | 0 kts | 170° |
| 2026-05-04 02:52 | 39.05440 | -84.64668 | 872 ft | 38 kts | 178° |
| 2026-05-04 02:52 | 39.04879 | -84.64667 | 880 ft | 120 kts | 180° |
| 2026-05-04 02:52 | 39.03813 | -84.64672 | 934 ft | 180 kts | 180° |
| 2026-05-04 02:52 | 39.02560 | -84.64713 | 1730 ft | 181 kts | 185° |
| 2026-05-04 02:53 | 39.01265 | -84.64643 | 2358 ft | 199 kts | 171° |
| 2026-05-04 02:53 | 38.99872 | -84.64141 | 3162 ft | 215 kts | 172° |
| 2026-05-04 02:53 | 38.98399 | -84.63694 | 3946 ft | 225 kts | 174° |
| 2026-05-04 02:53 | 38.96863 | -84.63155 | 4524 ft | 237 kts | 161° |
| 2026-05-04 02:54 | 38.95586 | -84.61735 | 4980 ft | 259 kts | 126° |
| 2026-05-04 02:54 | 38.94936 | -84.59486 | 5055 ft | 278 kts | 106° |
| 2026-05-04 02:54 | 38.94554 | -84.56987 | 5532 ft | 291 kts | 103° |
| 2026-05-04 02:54 | 38.94161 | -84.54398 | 6299 ft | 300 kts | 101° |
| 2026-05-04 02:55 | 38.94695 | -84.49262 | 7852 ft | 294 kts | 50° |
| 2026-05-04 02:55 | 38.96072 | -84.47384 | 8686 ft | 285 kts | 30° |
| 2026-05-04 02:55 | 38.97671 | -84.45851 | 9527 ft | 288 kts | 29° |
| 2026-05-04 02:56 | 38.99298 | -84.44330 | 10361 ft | 290 kts | 26° |
| 2026-05-04 02:56 | 39.01075 | -84.43259 | 11118 ft | 278 kts | 8° |
| 2026-05-04 02:56 | 39.02963 | -84.42712 | 11880 ft | 279 kts | 4° |
| 2026-05-04 02:56 | 39.04881 | -84.42217 | 12678 ft | 283 kts | 4° |
| 2026-05-04 02:57 | 39.06819 | -84.41714 | 13449 ft | 284 kts | 0° |
| 2026-05-04 02:57 | 39.08748 | -84.41634 | 14114 ft | 281 kts | 350° |
| 2026-05-04 02:57 | 39.10682 | -84.41886 | 14744 ft | 277 kts | 340° |
| 2026-05-04 02:57 | 39.12532 | -84.42560 | 15510 ft | 274 kts | 335° |
| 2026-05-04 02:58 | 39.14348 | -84.43319 | 16278 ft | 275 kts | 335° |
| 2026-05-04 02:58 | 39.16182 | -84.44079 | 17009 ft | 278 kts | 335° |
| 2026-05-04 02:58 | 39.18037 | -84.44819 | 17758 ft | 280 kts | 336° |
| 2026-05-04 02:58 | 39.19918 | -84.45545 | 18493 ft | 283 kts | 336° |
| 2026-05-04 02:59 | 39.21816 | -84.46266 | 19143 ft | 285 kts | 336° |
| 2026-05-04 02:59 | 39.23736 | -84.47001 | 19747 ft | 290 kts | 336° |
| 2026-05-04 02:59 | 39.25673 | -84.47755 | 20355 ft | 293 kts | 335° |
| 2026-05-04 02:59 | 39.27628 | -84.48512 | 21035 ft | 294 kts | 335° |
| 2026-05-04 03:00 | 39.29591 | -84.49260 | 21715 ft | 295 kts | 335° |
| 2026-05-04 03:00 | 39.31572 | -84.50001 | 22379 ft | 298 kts | 335° |
| 2026-05-04 03:00 | 39.33572 | -84.50737 | 23027 ft | 300 kts | 335° |
| 2026-05-04 03:00 | 39.35569 | -84.51461 | 23656 ft | 303 kts | 335° |
| 2026-05-04 03:01 | 39.37612 | -84.52189 | 24195 ft | 306 kts | 335° |
| 2026-05-04 03:01 | 39.39672 | -84.52921 | 24740 ft | 308 kts | 335° |
| 2026-05-04 03:01 | 39.41752 | -84.53661 | 25288 ft | 311 kts | 335° |
| 2026-05-04 03:01 | 39.43846 | -84.54407 | 25835 ft | 313 kts | 335° |
| 2026-05-04 03:02 | 39.45948 | -84.55186 | 26386 ft | 316 kts | 335° |
| 2026-05-04 03:02 | 39.48066 | -84.56022 | 26812 ft | 321 kts | 335° |
| 2026-05-04 03:02 | 39.50227 | -84.56855 | 27271 ft | 326 kts | 336° |
| 2026-05-04 03:02 | 39.52414 | -84.57677 | 27687 ft | 328 kts | 336° |
| 2026-05-04 03:03 | 39.54634 | -84.58440 | 28016 ft | 334 kts | 343° |
| 2026-05-04 03:03 | 39.57002 | -84.58633 | 28324 ft | 348 kts | 353° |
| 2026-05-04 03:03 | 39.59452 | -84.58285 | 28685 ft | 360 kts | 4° |
| 2026-05-04 03:03 | 39.61896 | -84.57358 | 29055 ft | 369 kts | 9° |
| 2026-05-04 03:04 | 39.64303 | -84.56289 | 29414 ft | 372 kts | 10° |
| 2026-05-04 03:04 | 39.66750 | -84.55171 | 29768 ft | 375 kts | 10° |
| 2026-05-04 03:04 | 39.69220 | -84.54048 | 30142 ft | 377 kts | 11° |
| 2026-05-04 03:04 | 39.71704 | -84.52930 | 30438 ft | 379 kts | 11° |
| 2026-05-04 03:05 | 39.74201 | -84.51818 | 30758 ft | 380 kts | 11° |
| 2026-05-04 03:05 | 39.76720 | -84.50704 | 30934 ft | 386 kts | 11° |
| 2026-05-04 03:05 | 39.79270 | -84.49582 | 30972 ft | 388 kts | 11° |
| 2026-05-04 03:05 | 39.81867 | -84.48443 | 30995 ft | 399 kts | 11° |
| 2026-05-04 03:06 | 39.84536 | -84.47273 | 31013 ft | 410 kts | 11° |
| 2026-05-04 03:06 | 39.87276 | -84.46068 | 31006 ft | 421 kts | 11° |
| 2026-05-04 03:06 | 39.90088 | -84.44827 | 31034 ft | 431 kts | 12° |
| 2026-05-04 03:06 | 39.92966 | -84.43555 | 31005 ft | 442 kts | 12° |
| 2026-05-04 03:07 | 39.95910 | -84.42254 | 30994 ft | 452 kts | 12° |
| 2026-05-04 03:07 | 40.02052 | -84.40209 | 30996 ft | 459 kts | 2° |
| 2026-05-04 03:08 | 40.08471 | -84.39756 | 30983 ft | 466 kts | 353° |
| 2026-05-04 03:08 | 40.14991 | -84.39991 | 30987 ft | 475 kts | 353° |
| 2026-05-04 03:09 | 40.21538 | -84.40220 | 30970 ft | 472 kts | 353° |
| 2026-05-04 03:09 | 40.28091 | -84.40407 | 30970 ft | 470 kts | 353° |
| 2026-05-04 03:10 | 40.34630 | -84.40579 | 30999 ft | 470 kts | 353° |
| 2026-05-04 03:10 | 40.41174 | -84.40752 | 30976 ft | 470 kts | 353° |
| 2026-05-04 03:11 | 40.47724 | -84.40927 | 30965 ft | 471 kts | 353° |
| 2026-05-04 03:11 | 40.54290 | -84.41103 | 30959 ft | 472 kts | 353° |
| 2026-05-04 03:12 | 40.60855 | -84.41279 | 30957 ft | 472 kts | 353° |
| 2026-05-04 03:12 | 40.67432 | -84.41455 | 30955 ft | 473 kts | 353° |
| 2026-05-04 03:13 | 40.73992 | -84.41743 | 30956 ft | 470 kts | 349° |
| 2026-05-04 03:13 | 40.80338 | -84.43175 | 30952 ft | 465 kts | 343° |
| 2026-05-04 03:14 | 40.86669 | -84.44916 | 30939 ft | 465 kts | 343° |
| 2026-05-04 03:14 | 40.92926 | -84.46603 | 30854 ft | 451 kts | 343° |
| 2026-05-04 03:15 | 40.98977 | -84.48213 | 30666 ft | 438 kts | 343° |
| 2026-05-04 03:15 | 41.01951 | -84.49007 | 30457 ft | 435 kts | 344° |
| 2026-05-04 03:15 | 41.04920 | -84.49801 | 30121 ft | 436 kts | 344° |
| 2026-05-04 03:15 | 41.07892 | -84.50598 | 29671 ft | 437 kts | 344° |
| 2026-05-04 03:16 | 41.10879 | -84.51399 | 29158 ft | 439 kts | 344° |
| 2026-05-04 03:16 | 41.13883 | -84.52205 | 28637 ft | 441 kts | 344° |
| 2026-05-04 03:16 | 41.16895 | -84.53013 | 28124 ft | 442 kts | 344° |
| 2026-05-04 03:16 | 41.19919 | -84.53824 | 27602 ft | 444 kts | 344° |
| 2026-05-04 03:17 | 41.22952 | -84.54638 | 27140 ft | 445 kts | 345° |
| 2026-05-04 03:17 | 41.25999 | -84.55456 | 26960 ft | 447 kts | 345° |
| 2026-05-04 03:17 | 41.29051 | -84.56275 | 26933 ft | 447 kts | 345° |
| 2026-05-04 03:17 | 41.32104 | -84.57096 | 26930 ft | 447 kts | 345° |
| 2026-05-04 03:18 | 41.35115 | -84.57906 | 26917 ft | 447 kts | 345° |
| 2026-05-04 03:18 | 41.38168 | -84.58729 | 26929 ft | 447 kts | 345° |
| 2026-05-04 03:18 | 41.41221 | -84.59553 | 26924 ft | 447 kts | 345° |
| 2026-05-04 03:18 | 41.44268 | -84.60376 | 26939 ft | 448 kts | 345° |
| 2026-05-04 03:19 | 41.47321 | -84.61203 | 26932 ft | 448 kts | 345° |
| 2026-05-04 03:19 | 41.50380 | -84.62030 | 26915 ft | 448 kts | 345° |
| 2026-05-04 03:19 | 41.53433 | -84.62857 | 26908 ft | 448 kts | 345° |
| 2026-05-04 03:19 | 41.56474 | -84.63680 | 26900 ft | 441 kts | 345° |
| 2026-05-04 03:20 | 41.59457 | -84.64487 | 26451 ft | 437 kts | 345° |
| 2026-05-04 03:20 | 41.62424 | -84.65293 | 25893 ft | 432 kts | 345° |
| 2026-05-04 03:20 | 41.65356 | -84.66090 | 25334 ft | 427 kts | 345° |
| 2026-05-04 03:20 | 41.68253 | -84.66880 | 24726 ft | 423 kts | 346° |
| 2026-05-04 03:21 | 41.71126 | -84.67659 | 24173 ft | 419 kts | 345° |
| 2026-05-04 03:21 | 41.73969 | -84.68438 | 23626 ft | 415 kts | 345° |
| 2026-05-04 03:21 | 41.76792 | -84.69211 | 23009 ft | 412 kts | 345° |
| 2026-05-04 03:21 | 41.79586 | -84.69974 | 22424 ft | 408 kts | 345° |
| 2026-05-04 03:22 | 41.82348 | -84.70693 | 21876 ft | 399 kts | 349° |
| 2026-05-04 03:22 | 41.85098 | -84.70604 | 21356 ft | 405 kts | 7° |
| 2026-05-04 03:22 | 41.87758 | -84.69323 | 20868 ft | 410 kts | 23° |
| 2026-05-04 03:22 | 41.90144 | -84.67209 | 20377 ft | 414 kts | 36° |
| 2026-05-04 03:23 | 41.92070 | -84.64314 | 19883 ft | 417 kts | 50° |
| 2026-05-04 03:23 | 41.93733 | -84.61140 | 19385 ft | 414 kts | 51° |
| 2026-05-04 03:23 | 41.95371 | -84.57961 | 18915 ft | 413 kts | 51° |
| 2026-05-04 03:23 | 41.96934 | -84.54955 | 18452 ft | 411 kts | 50° |
| 2026-05-04 03:24 | 41.98581 | -84.51830 | 17933 ft | 409 kts | 50° |
| 2026-05-04 03:24 | 42.00234 | -84.48729 | 17408 ft | 407 kts | 50° |
| 2026-05-04 03:24 | 42.01887 | -84.45645 | 16906 ft | 405 kts | 50° |
| 2026-05-04 03:24 | 42.03534 | -84.42576 | 16410 ft | 403 kts | 50° |
| 2026-05-04 03:25 | 42.05173 | -84.39519 | 15946 ft | 401 kts | 50° |
| 2026-05-04 03:25 | 42.06800 | -84.36478 | 15493 ft | 399 kts | 50° |
| 2026-05-04 03:25 | 42.08304 | -84.33334 | 15022 ft | 400 kts | 57° |
| 2026-05-04 03:25 | 42.09530 | -84.29972 | 14606 ft | 399 kts | 62° |
| 2026-05-04 03:26 | 42.10685 | -84.26588 | 14169 ft | 398 kts | 62° |
| 2026-05-04 03:26 | 42.11844 | -84.23211 | 13708 ft | 396 kts | 62° |
| 2026-05-04 03:26 | 42.13009 | -84.19850 | 13191 ft | 395 kts | 61° |
| 2026-05-04 03:26 | 42.14174 | -84.16509 | 12708 ft | 393 kts | 62° |
| 2026-05-04 03:27 | 42.15334 | -84.13187 | 12226 ft | 391 kts | 62° |
| 2026-05-04 03:27 | 42.16511 | -84.09901 | 11772 ft | 387 kts | 59° |
| 2026-05-04 03:27 | 42.17811 | -84.06752 | 11326 ft | 383 kts | 57° |
| 2026-05-04 03:27 | 42.19127 | -84.03647 | 10972 ft | 378 kts | 57° |
| 2026-05-04 03:28 | 42.20407 | -84.00634 | 10807 ft | 357 kts | 57° |
| 2026-05-04 03:28 | 42.21583 | -83.97846 | 10642 ft | 327 kts | 57° |
| 2026-05-04 03:28 | 42.22659 | -83.95288 | 10520 ft | 304 kts | 56° |
| 2026-05-04 03:28 | 42.23683 | -83.92854 | 10403 ft | 293 kts | 56° |
| 2026-05-04 03:29 | 42.24672 | -83.90504 | 10304 ft | 283 kts | 57° |
| 2026-05-04 03:29 | 42.25632 | -83.88225 | 10198 ft | 286 kts | 56° |
| 2026-05-04 03:29 | 42.26645 | -83.85823 | 10095 ft | 296 kts | 57° |
| 2026-05-04 03:29 | 42.27653 | -83.83424 | 9911 ft | 300 kts | 57° |
| 2026-05-04 03:30 | 42.28682 | -83.80965 | 9567 ft | 301 kts | 57° |
| 2026-05-04 03:30 | 42.29701 | -83.78523 | 9239 ft | 297 kts | 57° |
| 2026-05-04 03:30 | 42.30707 | -83.76107 | 8908 ft | 293 kts | 57° |
| 2026-05-04 03:30 | 42.31699 | -83.73725 | 8607 ft | 289 kts | 57° |
| 2026-05-04 03:31 | 42.32681 | -83.71368 | 8304 ft | 285 kts | 57° |
| 2026-05-04 03:31 | 42.33647 | -83.69044 | 8011 ft | 283 kts | 56° |
| 2026-05-04 03:31 | 42.34621 | -83.66706 | 7735 ft | 288 kts | 56° |
| 2026-05-04 03:31 | 42.35617 | -83.64313 | 7441 ft | 293 kts | 56° |
| 2026-05-04 03:32 | 42.36617 | -83.61905 | 7124 ft | 294 kts | 56° |
| 2026-05-04 03:32 | 42.37620 | -83.59485 | 6816 ft | 296 kts | 56° |
| 2026-05-04 03:32 | 42.38626 | -83.57057 | 6572 ft | 294 kts | 56° |
| 2026-05-04 03:32 | 42.39286 | -83.55462 | 6362 ft | 295 kts | 56° |
| 2026-05-04 03:33 | 42.40290 | -83.53037 | 6050 ft | 295 kts | 56° |
| 2026-05-04 03:33 | 42.41278 | -83.50645 | 5715 ft | 285 kts | 57° |
| 2026-05-04 03:33 | 42.42250 | -83.48269 | 5378 ft | 293 kts | 60° |
| 2026-05-04 03:33 | 42.42753 | -83.45575 | 5070 ft | 300 kts | 93° |
| 2026-05-04 03:34 | 42.42252 | -83.42915 | 4749 ft | 288 kts | 127° |
| 2026-05-04 03:34 | 42.40986 | -83.40941 | 4476 ft | 271 kts | 150° |
| 2026-05-04 03:34 | 42.39494 | -83.39432 | 4217 ft | 268 kts | 152° |
| 2026-05-04 03:34 | 42.38038 | -83.37969 | 4054 ft | 252 kts | 153° |
| 2026-05-04 03:35 | 42.36620 | -83.36960 | 3885 ft | 205 kts | 181° |
| 2026-05-04 03:35 | 42.35381 | -83.37091 | 3684 ft | 161 kts | 205° |
| 2026-05-04 03:35 | 42.34428 | -83.37680 | 3485 ft | 141 kts | 227° |
| 2026-05-04 03:35 | 42.33784 | -83.38648 | 3346 ft | 141 kts | 229° |
| 2026-05-04 03:36 | 42.33107 | -83.39599 | 3166 ft | 138 kts | 228° |
| 2026-05-04 03:36 | 42.32458 | -83.40523 | 2975 ft | 134 kts | 227° |
| 2026-05-04 03:36 | 42.31826 | -83.41428 | 2794 ft | 131 kts | 227° |
| 2026-05-04 03:36 | 42.31209 | -83.42312 | 2615 ft | 132 kts | 227° |
| 2026-05-04 03:37 | 42.30568 | -83.43234 | 2370 ft | 137 kts | 226° |
| 2026-05-04 03:37 | 42.29912 | -83.44174 | 2088 ft | 136 kts | 225° |
| 2026-05-04 03:37 | 42.29281 | -83.45081 | 2040 ft | 129 kts | 225° |
| 2026-05-04 03:37 | 42.28686 | -83.45933 | 2014 ft | 121 kts | 225° |
| 2026-05-04 03:38 | 42.28107 | -83.46766 | 1849 ft | 122 kts | 224° |
| 2026-05-04 03:38 | 42.27521 | -83.47605 | 1687 ft | 124 kts | 224° |
| 2026-05-04 03:38 | 42.26906 | -83.48485 | 1492 ft | 134 kts | 224° |
| 2026-05-04 03:38 | 42.26281 | -83.49381 | 1319 ft | 144 kts | 224° |
| 2026-05-04 03:39 | 42.25611 | -83.50326 | 1321 ft | 129 kts | 224° |
| 2026-05-04 03:39 | 42.24972 | -83.51238 | 1032 ft | 134 kts | 226° |
| 2026-05-04 03:39 | 42.24379 | -83.52100 | 736 ft | 125 kts | 224° |
| 2026-05-04 03:39 | 42.23842 | -83.52858 | 723 ft | 74 kts | 227° |
| 2026-05-04 03:40 | 42.23643 | -83.53158 | 727 ft | 37 kts | 227° |
| 2026-05-04 03:40 | 42.23483 | -83.53385 | 728 ft | 31 kts | 225° |
| 2026-05-04 03:40 | 42.23334 | -83.53596 | 727 ft | 31 kts | 227° |
| 2026-05-04 03:40 | 42.23192 | -83.53800 | 727 ft | 29 kts | 226° |
| 2026-05-04 03:41 | 42.23084 | -83.53936 | 725 ft | 16 kts | 198° |
| 2026-05-04 03:41 | 42.22958 | -83.53830 | 729 ft | 30 kts | 139° |
| 2026-05-04 03:41 | 42.22801 | -83.53648 | 730 ft | 30 kts | 140° |
| 2026-05-04 03:41 | 42.22645 | -83.53471 | 730 ft | 24 kts | 140° |
| 2026-05-04 03:42 | 42.22518 | -83.53363 | 727 ft | 9 kts | 167° |
| 2026-05-04 03:42 | 42.22460 | -83.53374 | 726 ft | 0 kts | 194° |